ADDS METAR Data INFO
IDs: Format: Raw Decoded Include TAF

Data at: 2041 UTC 16 Dec 2017

KMFD 161952Z 23013G19KT 10SM CLR 06/M02 A2998 RMK AO2 SLP161 T00561022
KMFD 161852Z 23015G20KT 10SM CLR 05/M03 A2997 RMK AO2 SLP161 T00501028
KMFD 161752Z 22017G21KT 10SM CLR 04/M03 A2998 RMK AO2 SLP162 T00391028 10044 20000 58003
KMFD 161652Z 22013G21KT 10SM SCT090 03/M03 A2999 RMK AO2 SLP166 T00331033
KMFD 161552Z 21014KT 10SM OVC090 02/M03 A3001 RMK AO2 SLP174 T00171033
KMFD 161452Z 21014G21KT 10SM OVC095 01/M04 A2999 RMK AO2 SLP168 T00111039 53007
KMFD 161352Z 21015G20KT 10SM OVC080 01/M04 A2998 RMK AO2 SLP166 T00061039
KMFD 161252Z 23015G24KT 10SM OVC080 01/M04 A2997 RMK AO2 PK WND 21028/1205 SLP163 T00061044
KMFD 161152Z 22012KT 10SM OVC075 00/M05 A2997 RMK AO2 SLP161 60000 70001 T00001050 10000 21022 55003
KMFD 161052Z AUTO 21014G20KT 10SM BKN055 BKN070 OVC100 M01/M05 A2996 RMK AO2 PK WND 18026/0953 SLP160 T10061050
KMFD 160952Z AUTO 19021G37KT 180V240 10SM OVC042 M01/M05 A2996 RMK AO2 PK WND 18037/0946 SLP161 T10111050
KMFD 160852Z AUTO 22014G20KT 10SM OVC046 M01/M06 A2997 RMK AO2 SLP165 60000 T10111056 51005
KMFD 160752Z AUTO 21013G20KT 10SM BKN041 OVC070 M02/M06 A2997 RMK AO2 SNE17 SLP166 P0000 T10171056
KMFD 160652Z AUTO 22013G19KT 6SM -SN OVC040 M02/M06 A2996 RMK AO2 SLP162 P0000 T10221061
KMFD 160552Z AUTO 22015G20KT 10SM -SN OVC046 M02/M07 A2996 RMK AO2 SNB52 SLP161 P0000 60000 T10221072 11022 21044 50001
KMFD 160452Z AUTO 23012G21KT 10SM OVC042 M03/M07 A2998 RMK AO2 PK WND 23027/0416 SLP167 T10281072 410281139
KMFD 160352Z AUTO 25012G20KT 10SM FEW049 OVC060 M03/M08 A2997 RMK AO2 SLP165 T10281078
KMFD 160252Z 25012G17KT 10SM BKN038 BKN047 OVC055 M03/M08 A2996 RMK AO2 SLP162 T10281083 53007 $
KMFD 160152Z 24010G20KT 10SM OVC049 M04/M09 A2995 RMK AO2 SLP161 T10391094 $
KMFD 160059Z 27012KT 10SM BKN044 M04/M10 A2995 RMK AO2 T10441100
KMFD 160052Z AUTO 10SM BKN044 M04/M10 A2994 RMK AO2 SLP160 T10441100
KMFD 152352Z AUTO 26013G22KT 10SM FEW018 FEW027 OVC039 M04/M07 A2993 RMK AO2 SNE31 SLP157 P0000 60001 T10391072 11033 21044 53021
KMFD 152340Z AUTO 25012G22KT 10SM FEW016 BKN030 OVC037 M04/M07 A2992 RMK AO2 SNE31 P0000 T10391067
KMFD 152252Z 25008G16KT 6SM -SN SCT019 BKN024 OVC043 M04/M07 A2990 RMK AO2 SNB2159 SLP147 P0000 T10391067
KMFD 152219Z 24007KT 3SM -SN BR FEW028 SCT038 OVC046 M04/M07 A2989 RMK AO2 SNB2159 P0000 T10441067
KMFD 152208Z 25009G16KT 1 3/4SM -SN FEW027 OVC045 M04/M07 A2989 RMK AO2 SNB2159 P0000 T10391067
KMFD 152152Z 25012G19KT 9SM OVC047 M04/M07 A2989 RMK AO2 SNE03 SLP141 P0000 T10391072
KMFD 152108Z 26013G19KT 6SM BR FEW010 SCT016 OVC041 M04/M06 A2988 RMK AO2 SNE03 P0000 T10391061
KMFD 152105Z 26014G19KT 6SM BR FEW008 BKN014 OVC041 M04/M06 A2988 RMK AO2 SNE03 P0000 T10391061
KMFD 152057Z 26013G19KT 3SM -SN BR SCT008 BKN015 OVC039 M04/M06 A2987 RMK AO2 P0000 T10391061
KMFD 152052Z 26013G19KT 1SM -SN BR BKN010 BKN015 OVC021 M04/M06 A2987 RMK AO2 SLP137 P0001 60001 T10391056 53003
KMFD 152024Z 24013G20KT 3/4SM -SN BR OVC013 M04/M06 A2986 RMK AO2 P0000 T10391056
KMFD 152010Z 23009G18KT 3/4SM -SN BR OVC015 M04/M06 A2986 RMK AO2 P0000 T10391061
KMFD 151952Z 23011G21KT 1 1/2SM -SN FEW016 BKN022 OVC035 M04/M07 A2986 RMK AO2 SNB17 SLP131 P0000 T10391067
KMFD 151929Z 23012G18KT 2SM -SN BKN023 BKN028 OVC035 M03/M07 A2985 RMK AO2 SNB17 P0000 T10331072
KMFD 151852Z 22013G18KT 9SM OVC024 M03/M08 A2985 RMK AO2 SNB14E27 SLP129 P0000 T10331083
KMFD 151819Z 21013KT 7SM -SN OVC028 M04/M08 A2985 RMK AO2 SNB14 P0000 T10391083
KMFD 151752Z 21016G22KT 10SM FEW026 OVC034 M04/M09 A2986 RMK AO2 SLP133 T10391089 11039 21111 57021
KMFD 151652Z 20013G22KT 10SM OVC041 M04/M10 A2988 RMK AO2 SLP139 T10441100
KMFD 151552Z 19011KT 10SM OVC039 M06/M11 A2991 RMK AO2 SLP150 T10611111
KMFD 151452Z 20010KT 10SM OVC039 M07/M12 A2993 RMK AO2 SLP155 T10721122 56010
KMFD 151352Z 18007KT 10SM OVC041 M08/M13 A2993 RMK AO2 SLP158 T10831128
KMFD 151252Z 19005KT 10SM OVC041 M10/M13 A2995 RMK AO2 SLP164 T11001133
KMFD 151152Z 17005KT 10SM OVC038 M11/M13 A2996 RMK AO2 SLP169 70001 T11111133 11111 21139 55007
KMFD 151052Z 16006KT 10SM CLR M12/M13 A2995 RMK AO2 SLP167 T11171133
KMFD 150952Z AUTO 18005KT 10SM BKN038 M13/M14 A2997 RMK AO2 SLP173 T11281144
KMFD 150852Z AUTO 00000KT 10SM CLR M13/M14 A2998 RMK AO2 SLP175 T11281139 56012